createdAt,value
2018-02-08T00:00:22.982Z,0
2018-02-08T00:01:24.161Z,0
2018-02-08T00:02:22.893Z,0
2018-02-08T00:03:23.362Z,0
2018-02-08T00:04:22.403Z,0
2018-02-08T00:05:43.586Z,0
2018-02-08T00:06:43.702Z,0
2018-02-08T00:07:43.753Z,0
2018-02-08T00:08:43.946Z,0
2018-02-08T00:09:43.822Z,0
2018-02-08T00:11:04.976Z,0
2018-02-08T00:12:05.349Z,0
2018-02-08T00:13:05.931Z,0
2018-02-08T00:14:05.248Z,0
2018-02-08T00:15:05.796Z,0
2018-02-08T00:16:05.263Z,0
2018-02-08T00:17:43.878Z,0
2018-02-08T00:18:44.624Z,0
2018-02-08T00:19:43.983Z,0
2018-02-08T00:21:05.543Z,0
2018-02-08T00:22:06.657Z,0
2018-02-08T00:23:06.267Z,0
2018-02-08T00:24:05.600Z,0
2018-02-08T00:25:06.173Z,0
2018-02-08T00:26:06.627Z,0
2018-02-08T00:27:06.333Z,0
2018-02-08T00:28:05.829Z,0
2018-02-08T00:29:06.150Z,0
2018-02-08T00:30:06.415Z,0
2018-02-08T00:31:27.046Z,0
2018-02-08T00:32:28.270Z,0
2018-02-08T00:33:27.707Z,0
2018-02-08T00:34:27.014Z,0
2018-02-08T00:35:27.455Z,0
2018-02-08T00:36:28.132Z,0
2018-02-08T00:37:27.826Z,0
2018-02-08T00:38:27.242Z,0
2018-02-08T00:39:27.841Z,0
2018-02-08T00:40:27.504Z,0
2018-02-08T00:41:28.204Z,0
2018-02-08T00:42:28.012Z,0
2018-02-08T00:43:27.856Z,0
2018-02-08T00:44:27.192Z,0
2018-02-08T00:45:27.381Z,0
2018-02-08T00:46:49.627Z,0
2018-02-08T00:47:49.858Z,0
2018-02-08T00:48:49.495Z,0
2018-02-08T00:49:50.120Z,0
2018-02-08T00:50:49.413Z,0
2018-02-08T00:51:49.825Z,0
2018-02-08T00:52:50.089Z,0
2018-02-08T00:53:49.781Z,0
2018-02-08T00:54:50.120Z,0
2018-02-08T00:55:49.952Z,0
2018-02-08T00:56:49.801Z,0
2018-02-08T00:57:50.240Z,0
2018-02-08T00:58:50.052Z,0
2018-02-08T00:59:49.812Z,0
2018-02-08T01:01:32.444Z,0
2018-02-08T01:02:32.862Z,0
2018-02-08T01:03:33.188Z,0
2018-02-08T01:04:32.870Z,0
2018-02-08T01:06:15.601Z,0
2018-02-08T01:07:16.383Z,0
2018-02-08T01:08:15.878Z,0
2018-02-08T01:09:16.435Z,0
2018-02-08T01:10:15.904Z,0
2018-02-08T01:11:16.264Z,0
2018-02-08T01:12:16.578Z,0
2018-02-08T01:13:16.003Z,0
2018-02-08T01:14:37.492Z,0
2018-02-08T01:15:37.797Z,0
2018-02-08T01:16:37.929Z,0
2018-02-08T01:17:38.109Z,0
2018-02-08T01:18:37.753Z,0
2018-02-08T01:20:20.173Z,0
2018-02-08T01:21:20.479Z,0
2018-02-08T01:22:21.313Z,0
2018-02-08T01:23:20.631Z,0
2018-02-08T01:24:42.581Z,0
2018-02-08T01:25:43.050Z,0
2018-02-08T01:26:43.882Z,0
2018-02-08T01:27:43.492Z,0
2018-02-08T01:28:42.864Z,0
2018-02-08T01:29:43.575Z,0
2018-02-08T01:30:42.848Z,0
2018-02-08T01:31:43.363Z,0
2018-02-08T01:32:42.710Z,0
2018-02-08T01:33:43.078Z,0
2018-02-08T01:34:43.764Z,0
2018-02-08T01:35:43.132Z,0
2018-02-08T01:36:42.675Z,0
2018-02-08T01:37:43.202Z,0
2018-02-08T01:38:43.749Z,0
2018-02-08T01:39:43.392Z,0
2018-02-08T01:40:43.108Z,0
2018-02-08T01:41:43.732Z,0
2018-02-08T01:42:43.044Z,0
2018-02-08T01:43:43.579Z,0
2018-02-08T01:44:43.367Z,0
2018-02-08T01:45:42.759Z,0
2018-02-08T01:46:44.176Z,0
2018-02-08T01:47:43.616Z,0
2018-02-08T01:48:43.197Z,0
2018-02-08T01:50:03.748Z,0
2018-02-08T01:51:04.132Z,0
2018-02-08T01:52:03.481Z,0
2018-02-08T01:53:25.312Z,0
2018-02-08T01:54:25.433Z,0
2018-02-08T01:55:26.015Z,0
2018-02-08T01:56:33.712Z,0
2018-02-08T01:57:26.239Z,0
2018-02-08T01:58:26.286Z,0
2018-02-08T01:59:25.897Z,0
2018-02-08T02:00:26.032Z,0
2018-02-08T02:01:25.318Z,0
2018-02-08T02:02:26.160Z,0
2018-02-08T02:03:25.514Z,0
2018-02-08T02:04:26.168Z,0
2018-02-08T02:05:25.787Z,0
2018-02-08T02:06:25.630Z,0
2018-02-08T02:08:08.953Z,0
2018-02-08T02:09:09.634Z,0
2018-02-08T02:10:09.301Z,0
2018-02-08T02:11:09.938Z,0
2018-02-08T02:12:09.425Z,0
2018-02-08T02:13:10.040Z,0
2018-02-08T02:14:09.668Z,0
2018-02-08T02:15:30.281Z,0
2018-02-08T02:16:30.906Z,0
2018-02-08T02:17:31.222Z,0
2018-02-08T02:18:31.023Z,0
2018-02-08T02:19:52.829Z,0
2018-02-08T02:20:53.828Z,0
2018-02-08T02:21:53.119Z,0
2018-02-08T02:22:53.707Z,0
2018-02-08T02:23:53.452Z,0
2018-02-08T02:24:52.647Z,0
2018-02-08T02:26:14.531Z,0
2018-02-08T02:27:15.199Z,0
2018-02-08T02:28:14.868Z,0
2018-02-08T02:29:14.359Z,0
2018-02-08T02:30:14.953Z,0
2018-02-08T02:31:14.506Z,0
2018-02-08T02:32:37.220Z,0
2018-02-08T02:33:37.947Z,0
2018-02-08T02:34:37.290Z,0
2018-02-08T02:35:38.019Z,0
2018-02-08T02:36:37.722Z,0
2018-02-08T02:37:37.507Z,0
2018-02-08T02:38:58.577Z,0
2018-02-08T02:39:58.942Z,0
2018-02-08T02:40:58.451Z,0
2018-02-08T02:41:58.732Z,0
2018-02-08T02:42:59.934Z,0
2018-02-08T02:43:58.725Z,0
2018-02-08T02:44:58.228Z,0
2018-02-08T02:45:58.808Z,0
2018-02-08T02:46:58.273Z,0
2018-02-08T02:47:59.139Z,0
2018-02-08T02:48:58.758Z,0
2018-02-08T02:49:59.370Z,0
2018-02-08T02:51:19.728Z,0
2018-02-08T02:52:20.447Z,0
2018-02-08T02:53:19.930Z,0
2018-02-08T02:54:21.127Z,0
2018-02-08T02:55:20.508Z,0
2018-02-08T02:56:19.892Z,0
2018-02-08T02:57:20.630Z,0
2018-02-08T02:58:20.009Z,0
2018-02-08T02:59:20.332Z,0
2018-02-08T03:00:20.569Z,0
2018-02-08T03:01:20.218Z,0
2018-02-08T03:02:20.125Z,0
2018-02-08T03:03:20.999Z,0
2018-02-08T03:04:20.188Z,0
2018-02-08T03:05:21.349Z,0
2018-02-08T03:06:20.509Z,0
2018-02-08T03:07:20.366Z,0
2018-02-08T03:08:20.933Z,0
2018-02-08T03:09:20.345Z,0
2018-02-08T03:10:19.825Z,0
2018-02-08T03:11:20.623Z,0
2018-02-08T03:12:20.126Z,0
2018-02-08T03:13:20.858Z,0
2018-02-08T03:14:20.181Z,0
2018-02-08T03:15:20.806Z,0
2018-02-08T03:16:20.138Z,0
2018-02-08T03:17:20.843Z,0
2018-02-08T03:18:20.373Z,0
2018-02-08T03:19:19.736Z,0
2018-02-08T03:20:20.525Z,0
2018-02-08T03:21:20.253Z,0
2018-02-08T03:22:20.890Z,0
2018-02-08T03:23:41.470Z,0
2018-02-08T03:24:42.221Z,0
2018-02-08T03:25:41.750Z,0
2018-02-08T03:26:42.465Z,0
2018-02-08T03:27:42.267Z,0
2018-02-08T03:28:41.908Z,0
2018-02-08T03:29:42.295Z,0
2018-02-08T03:30:41.713Z,0
2018-02-08T03:31:42.610Z,0
2018-02-08T03:32:42.420Z,0
2018-02-08T03:34:03.230Z,0
2018-02-08T03:35:03.192Z,0
2018-02-08T03:36:03.888Z,0
2018-02-08T03:37:04.063Z,0
2018-02-08T03:38:04.138Z,0
2018-02-08T03:39:03.581Z,0
2018-02-08T03:40:03.192Z,0
2018-02-08T03:41:03.595Z,0
2018-02-08T03:42:02.950Z,0
2018-02-08T03:43:03.666Z,0
2018-02-08T03:44:03.335Z,0
2018-02-08T03:45:02.698Z,0
2018-02-08T03:46:03.292Z,0
2018-02-08T03:47:03.602Z,0
2018-02-08T03:48:03.486Z,0
2018-02-08T03:49:02.774Z,0
2018-02-08T03:50:03.464Z,0
2018-02-08T03:51:03.202Z,0
2018-02-08T03:52:03.924Z,0
2018-02-08T03:53:05.445Z,0
2018-02-08T03:54:03.619Z,0
2018-02-08T03:55:02.916Z,0
2018-02-08T03:56:03.259Z,0
2018-02-08T03:57:03.460Z,0
2018-02-08T03:58:02.881Z,0
2018-02-08T03:59:03.567Z,0
2018-02-08T04:00:02.982Z,0
2018-02-08T04:01:03.701Z,0
2018-02-08T04:02:03.287Z,0
2018-02-08T04:03:03.848Z,0
2018-02-08T04:04:03.569Z,0
2018-02-08T04:05:03.407Z,0
2018-02-08T04:06:24.121Z,0
2018-02-08T04:07:46.016Z,0
2018-02-08T04:08:46.210Z,0
2018-02-08T04:09:46.607Z,0
2018-02-08T04:10:46.638Z,0
2018-02-08T04:11:45.944Z,0
2018-02-08T04:12:46.617Z,0
2018-02-08T04:13:46.370Z,0
2018-02-08T04:14:45.928Z,0
2018-02-08T04:16:07.643Z,0
2018-02-08T04:17:08.202Z,0
2018-02-08T04:18:08.804Z,0
2018-02-08T04:19:08.136Z,0
2018-02-08T04:20:08.813Z,0
2018-02-08T04:21:08.524Z,0
2018-02-08T04:22:08.095Z,0
2018-02-08T04:23:08.601Z,0
2018-02-08T04:24:08.270Z,0
2018-02-08T04:25:08.145Z,0
2018-02-08T04:26:07.731Z,0
2018-02-08T04:27:08.061Z,0
2018-02-08T04:28:08.765Z,0
2018-02-08T04:29:08.277Z,0
2018-02-08T04:30:09.011Z,0
2018-02-08T04:31:09.092Z,0
2018-02-08T04:32:08.986Z,0
2018-02-08T04:33:08.994Z,0
2018-02-08T04:34:08.530Z,0
2018-02-08T04:35:08.267Z,0
2018-02-08T04:36:09.281Z,0
2018-02-08T04:37:08.943Z,0
2018-02-08T04:38:08.628Z,0
2018-02-08T04:39:07.968Z,0
2018-02-08T04:40:08.657Z,0
2018-02-08T04:41:07.994Z,0
2018-02-08T04:42:08.374Z,0
2018-02-08T04:43:08.657Z,0
2018-02-08T04:44:08.299Z,0
2018-02-08T04:45:29.997Z,0
2018-02-08T04:46:30.387Z,0
2018-02-08T04:47:30.088Z,0
2018-02-08T04:48:30.660Z,0
2018-02-08T04:49:29.943Z,0
2018-02-08T04:50:30.590Z,0
2018-02-08T04:51:29.986Z,0
2018-02-08T04:52:30.446Z,0
2018-02-08T04:53:29.883Z,0
2018-02-08T04:54:30.375Z,0
2018-02-08T04:56:34.046Z,0
2018-02-08T04:57:35.261Z,0
2018-02-08T04:58:35.135Z,0
2018-02-08T04:59:34.544Z,0
2018-02-08T05:00:34.990Z,0
2018-02-08T05:01:55.752Z,0
2018-02-08T05:02:56.069Z,0
2018-02-08T05:04:38.372Z,0
2018-02-08T05:05:39.248Z,0
2018-02-08T05:06:38.690Z,0
2018-02-08T05:07:39.113Z,0
2018-02-08T05:08:38.378Z,0
2018-02-08T05:10:00.283Z,0
2018-02-08T05:11:00.691Z,0
2018-02-08T05:12:00.234Z,0
2018-02-08T05:14:11.704Z,0
2018-02-08T05:15:12.471Z,0
2018-02-08T05:17:23.732Z,0
2018-02-08T05:18:24.467Z,0
2018-02-08T05:19:24.638Z,0
2018-02-08T05:20:24.023Z,0
2018-02-08T05:21:24.787Z,0
2018-02-08T05:22:23.898Z,0
2018-02-08T05:23:24.477Z,0
2018-02-08T05:24:24.658Z,0
2018-02-08T05:25:24.252Z,0
2018-02-08T05:26:24.071Z,0
2018-02-08T05:27:24.657Z,0
2018-02-08T05:28:24.128Z,0
2018-02-08T05:29:24.370Z,0
2018-02-08T05:30:24.023Z,0
2018-02-08T05:31:24.822Z,0
2018-02-08T05:32:24.051Z,0
2018-02-08T05:33:23.389Z,0
2018-02-08T05:34:24.282Z,0
2018-02-08T05:35:23.499Z,0
2018-02-08T05:36:23.978Z,0
2018-02-08T05:37:24.389Z,0
2018-02-08T05:38:24.050Z,0
2018-02-08T05:39:24.638Z,0
2018-02-08T05:40:24.461Z,0
2018-02-08T05:41:24.240Z,0
2018-02-08T05:42:24.079Z,0
2018-02-08T05:43:24.660Z,0
2018-02-08T05:44:24.108Z,0
2018-02-08T05:45:24.249Z,0
2018-02-08T05:46:24.066Z,0
2018-02-08T05:47:24.710Z,0
2018-02-08T05:48:23.961Z,0
2018-02-08T05:49:24.866Z,0
2018-02-08T05:50:24.435Z,0
2018-02-08T05:51:24.262Z,0
2018-02-08T05:52:23.631Z,0
2018-02-08T05:53:24.241Z,0
2018-02-08T05:54:23.607Z,0
2018-02-08T05:55:23.952Z,0
2018-02-08T05:56:25.011Z,0
2018-02-08T05:57:46.338Z,0
2018-02-08T05:58:46.682Z,0
2018-02-08T05:59:46.111Z,0
2018-02-08T06:00:46.656Z,0
2018-02-08T06:01:46.555Z,0
2018-02-08T06:02:49.995Z,0
2018-02-08T06:03:46.425Z,0
2018-02-08T06:04:47.371Z,0
2018-02-08T06:05:46.618Z,0
2018-02-08T06:07:33.496Z,0
2018-02-08T06:08:33.864Z,0
2018-02-08T06:09:34.257Z,0
2018-02-08T06:10:34.061Z,0
2018-02-08T06:11:34.247Z,0
2018-02-08T06:12:34.062Z,0
2018-02-08T06:13:35.437Z,0
2018-02-08T06:14:34.243Z,0
2018-02-08T06:15:55.341Z,0
2018-02-08T06:16:56.098Z,0
2018-02-08T06:17:56.122Z,0
2018-02-08T06:18:55.948Z,0
2018-02-08T06:19:55.494Z,0
2018-02-08T06:20:55.764Z,0
2018-02-08T06:21:55.610Z,0
2018-02-08T06:22:56.634Z,0
2018-02-08T06:23:55.937Z,0
2018-02-08T06:24:56.243Z,0
2018-02-08T06:25:55.913Z,0
2018-02-08T06:26:56.468Z,0
2018-02-08T06:27:56.267Z,0
2018-02-08T06:28:55.540Z,0
2018-02-08T06:29:55.948Z,0
2018-02-08T06:30:55.789Z,0
2018-02-08T06:32:17.947Z,0
2018-02-08T06:33:18.603Z,0
2018-02-08T06:34:18.315Z,0
2018-02-08T06:35:17.639Z,0
2018-02-08T06:36:18.142Z,0
2018-02-08T06:37:17.630Z,0
2018-02-08T06:38:18.350Z,0
2018-02-08T06:39:17.924Z,0
2018-02-08T06:40:18.376Z,0
2018-02-08T06:41:18.045Z,0
2018-02-08T06:42:40.096Z,0
2018-02-08T06:44:02.877Z,0
2018-02-08T06:45:03.645Z,0
2018-02-08T06:46:03.388Z,1
2018-02-08T06:47:04.042Z,1
2018-02-08T06:48:03.655Z,1
2018-02-08T06:49:03.729Z,1
2018-02-08T06:50:03.445Z,1
2018-02-08T06:51:25.151Z,2
2018-02-08T06:52:25.986Z,2
2018-02-08T06:53:25.457Z,2
2018-02-08T06:54:26.375Z,3
2018-02-08T06:55:25.718Z,3
2018-02-08T06:56:26.182Z,3
2018-02-08T06:57:25.932Z,3
2018-02-08T06:58:25.724Z,4
2018-02-08T06:59:26.510Z,4
2018-02-08T07:00:26.333Z,4
2018-02-08T07:01:26.047Z,5
2018-02-08T07:02:25.426Z,5
2018-02-08T07:03:25.868Z,5
2018-02-08T07:04:25.468Z,6
2018-02-08T07:05:26.460Z,6
2018-02-08T07:06:26.419Z,6
2018-02-08T07:07:26.261Z,7
2018-02-08T07:08:25.822Z,7
2018-02-08T07:09:25.542Z,8
2018-02-08T07:10:26.278Z,8
2018-02-08T07:11:25.781Z,9
2018-02-08T07:12:26.440Z,9
2018-02-08T07:13:25.921Z,10
2018-02-08T07:14:25.441Z,10
2018-02-08T07:15:26.430Z,10
2018-02-08T07:16:25.635Z,10
2018-02-08T07:17:26.533Z,11
2018-02-08T07:18:26.045Z,12
2018-02-08T07:19:25.500Z,13
2018-02-08T07:20:26.812Z,13
2018-02-08T07:21:25.182Z,13
2018-02-08T07:22:47.485Z,14
2018-02-08T07:23:48.101Z,15
2018-02-08T07:25:08.943Z,16
2018-02-08T07:26:12.565Z,17
2018-02-08T07:27:31.196Z,17
2018-02-08T07:28:32.128Z,18
2018-02-08T07:29:53.137Z,19
2018-02-08T07:30:53.970Z,21
2018-02-08T07:32:16.659Z,21
2018-02-08T07:33:17.544Z,22
2018-02-08T07:34:17.578Z,23
2018-02-08T07:35:17.151Z,22
2018-02-08T07:36:17.105Z,22
2018-02-08T07:37:17.767Z,22
2018-02-08T07:38:39.663Z,24
2018-02-08T07:40:22.975Z,25
2018-02-08T07:41:23.808Z,26
2018-02-08T07:42:24.202Z,27
2018-02-08T07:43:22.668Z,28
2018-02-08T07:44:23.456Z,30
2018-02-08T07:45:22.809Z,30
2018-02-08T07:46:23.215Z,28
2018-02-08T07:47:44.322Z,28
2018-02-08T07:48:44.890Z,28
2018-02-08T07:49:44.492Z,27
2018-02-08T07:50:44.908Z,28
2018-02-08T07:51:44.678Z,29
2018-02-08T07:52:44.084Z,29
2018-02-08T07:53:44.487Z,29
2018-02-08T07:54:44.823Z,30
2018-02-08T07:55:44.809Z,31
2018-02-08T07:56:44.292Z,32
2018-02-08T07:57:45.261Z,33
2018-02-08T07:58:45.612Z,34
2018-02-08T07:59:44.376Z,34
2018-02-08T08:00:45.223Z,35
2018-02-08T08:01:45.024Z,35
2018-02-08T08:02:44.693Z,36
2018-02-08T08:03:44.488Z,38
2018-02-08T08:05:06.485Z,37
2018-02-08T08:06:07.472Z,36
2018-02-08T08:07:07.682Z,36
2018-02-08T08:08:07.629Z,36
2018-02-08T08:09:07.683Z,36
2018-02-08T08:10:07.275Z,35
2018-02-08T08:11:07.085Z,34
2018-02-08T08:12:06.652Z,34
2018-02-08T08:13:07.185Z,34
2018-02-08T08:14:07.064Z,36
2018-02-08T08:15:07.045Z,38
2018-02-08T08:16:28.856Z,40
2018-02-08T08:17:29.192Z,40
2018-02-08T08:18:29.620Z,41
2018-02-08T08:19:29.687Z,41
2018-02-08T08:20:51.112Z,41
2018-02-08T08:21:51.469Z,42
2018-02-08T08:22:51.253Z,44
2018-02-08T08:23:52.064Z,44
2018-02-08T08:24:52.437Z,44
2018-02-08T08:25:51.255Z,45
2018-02-08T08:26:51.895Z,47
2018-02-08T08:27:51.423Z,48
2018-02-08T08:28:51.145Z,50
2018-02-08T08:29:51.907Z,51
2018-02-08T08:30:51.905Z,52
2018-02-08T08:31:51.699Z,52
2018-02-08T08:33:34.133Z,51
2018-02-08T08:34:34.627Z,50
2018-02-08T08:35:34.479Z,49
2018-02-08T08:36:35.365Z,50
2018-02-08T08:37:35.097Z,49
2018-02-08T08:38:34.628Z,46
2018-02-08T08:39:35.324Z,44
2018-02-08T08:40:34.668Z,42
2018-02-08T08:41:55.936Z,39
2018-02-08T08:42:56.319Z,38
2018-02-08T08:43:56.235Z,37
2018-02-08T08:44:56.080Z,36
2018-02-08T08:46:17.125Z,35
2018-02-08T08:47:18.460Z,35
2018-02-08T08:48:17.343Z,35
2018-02-08T08:49:17.631Z,35
2018-02-08T08:50:17.187Z,36
2018-02-08T08:51:18.003Z,37
2018-02-08T08:52:17.295Z,39
2018-02-08T08:53:17.405Z,40
2018-02-08T08:54:17.392Z,41
2018-02-08T08:55:17.188Z,41
2018-02-08T08:56:39.421Z,41
2018-02-08T08:57:39.899Z,40
2018-02-08T08:58:39.871Z,41
2018-02-08T08:59:39.581Z,40
2018-02-08T09:00:39.958Z,39
2018-02-08T09:02:01.094Z,39
2018-02-08T09:03:02.038Z,41
2018-02-08T09:04:02.132Z,41
2018-02-08T09:05:02.156Z,40
2018-02-08T09:06:01.609Z,45
2018-02-08T09:07:01.590Z,49
2018-02-08T09:08:02.562Z,48
2018-02-08T09:09:02.265Z,50
2018-02-08T09:10:02.533Z,47
2018-02-08T09:11:02.168Z,46
2018-02-08T09:12:01.959Z,48
2018-02-08T09:13:01.648Z,46
2018-02-08T09:14:03.455Z,46
2018-02-08T09:15:02.166Z,49
2018-02-08T09:16:02.045Z,51
2018-02-08T09:17:01.775Z,54
2018-02-08T09:18:01.710Z,63
2018-02-08T09:19:01.277Z,59
2018-02-08T09:20:02.253Z,64
2018-02-08T09:21:01.931Z,74
2018-02-08T09:22:01.457Z,84
2018-02-08T09:23:02.692Z,96
2018-02-08T09:24:01.558Z,112
2018-02-08T09:25:24.313Z,116
2018-02-08T09:26:24.975Z,117
2018-02-08T09:27:24.911Z,111
2018-02-08T09:28:24.543Z,118
2018-02-08T09:29:24.643Z,103
2018-02-08T09:30:24.114Z,94
2018-02-08T09:31:24.922Z,102
2018-02-08T09:32:25.015Z,134
2018-02-08T09:33:24.693Z,126
2018-02-08T09:34:24.954Z,123
2018-02-08T09:35:24.959Z,134
2018-02-08T09:36:24.510Z,154
2018-02-08T09:37:24.380Z,157
2018-02-08T09:38:25.039Z,157
2018-02-08T09:39:24.766Z,164
2018-02-08T09:40:25.062Z,182
2018-02-08T09:41:24.966Z,208
2018-02-08T09:42:25.156Z,224
2018-02-08T09:44:07.200Z,237
2018-02-08T09:45:29.260Z,259
2018-02-08T09:46:29.983Z,265
2018-02-08T09:47:30.005Z,273
2018-02-08T09:48:29.373Z,293
2018-02-08T09:49:30.258Z,296
2018-02-08T09:50:29.791Z,294
2018-02-08T09:51:29.464Z,288
2018-02-08T09:52:30.215Z,281
2018-02-08T09:53:29.876Z,270
2018-02-08T09:54:29.829Z,258
2018-02-08T09:55:29.512Z,251
2018-02-08T09:56:30.555Z,247
2018-02-08T09:57:29.912Z,249
2018-02-08T09:58:29.958Z,247
2018-02-08T09:59:29.685Z,244
2018-02-08T10:00:29.680Z,244
2018-02-08T10:01:30.302Z,246
2018-02-08T10:02:30.337Z,231
2018-02-08T10:03:31.551Z,224
2018-02-08T10:04:30.427Z,220
2018-02-08T10:05:30.296Z,210
2018-02-08T10:06:30.430Z,201
2018-02-08T10:07:30.651Z,197
2018-02-08T10:08:30.384Z,192
2018-02-08T10:09:30.570Z,193
2018-02-08T10:10:52.581Z,201
2018-02-08T10:11:52.848Z,207
2018-02-08T10:13:14.560Z,197
2018-02-08T10:14:14.653Z,190
2018-02-08T10:15:37.048Z,186
2018-02-08T10:16:37.624Z,188
2018-02-08T10:17:59.293Z,188
2018-02-08T10:18:59.291Z,187
2018-02-08T10:19:59.337Z,186
2018-02-08T10:20:58.984Z,184
2018-02-08T10:21:59.826Z,183
2018-02-08T10:23:20.774Z,182
2018-02-08T10:24:21.496Z,183
2018-02-08T10:25:21.146Z,181
2018-02-08T10:26:21.756Z,178
2018-02-08T10:27:21.396Z,149
2018-02-08T10:28:20.848Z,169
2018-02-08T10:29:21.830Z,181
2018-02-08T10:30:21.812Z,182
2018-02-08T10:31:21.389Z,183
2018-02-08T10:32:20.840Z,181
2018-02-08T10:33:21.493Z,163
2018-02-08T10:34:21.425Z,183
2018-02-08T10:35:21.045Z,189
2018-02-08T10:36:21.779Z,184
2018-02-08T10:37:21.778Z,152
2018-02-08T10:38:21.375Z,160
2018-02-08T10:39:21.043Z,181
2018-02-08T10:40:21.780Z,178
2018-02-08T10:41:21.625Z,178
2018-02-08T10:42:21.289Z,175
2018-02-08T10:43:20.987Z,188
2018-02-08T10:44:21.566Z,189
2018-02-08T10:45:21.295Z,183
2018-02-08T10:46:21.074Z,190
2018-02-08T10:47:21.188Z,202
2018-02-08T10:48:20.940Z,209
2018-02-08T10:49:21.914Z,243
2018-02-08T10:50:21.408Z,203
2018-02-08T10:51:21.490Z,192
2018-02-08T10:52:21.472Z,187
2018-02-08T10:53:21.132Z,191
2018-02-08T10:54:21.054Z,174
2018-02-08T10:55:21.458Z,176
2018-02-08T10:56:21.131Z,166
2018-02-08T10:57:43.847Z,155
2018-02-08T10:58:43.610Z,159
2018-02-08T10:59:44.297Z,136
2018-02-08T11:00:43.829Z,165
2018-02-08T11:01:44.440Z,170
2018-02-08T11:02:44.654Z,171
2018-02-08T11:03:44.760Z,181
2018-02-08T11:05:05.603Z,180
2018-02-08T11:06:05.183Z,184
2018-02-08T11:07:06.215Z,187
2018-02-08T11:08:27.868Z,192
2018-02-08T11:09:28.875Z,194
2018-02-08T11:10:27.714Z,195
2018-02-08T11:11:28.402Z,198
2018-02-08T11:12:49.143Z,202
2018-02-08T11:13:50.340Z,210
2018-02-08T11:14:49.899Z,209
2018-02-08T11:15:49.666Z,216
2018-02-08T11:16:49.386Z,219
2018-02-08T11:17:51.126Z,217
2018-02-08T11:18:50.148Z,218
2018-02-08T11:19:49.712Z,220
2018-02-08T11:21:11.561Z,215
2018-02-08T11:22:12.097Z,204
2018-02-08T11:23:11.657Z,183
2018-02-08T11:24:34.001Z,198
2018-02-08T11:25:33.506Z,208
2018-02-08T11:26:34.335Z,209
2018-02-08T11:27:34.042Z,220
2018-02-08T11:28:56.457Z,217
2018-02-08T11:29:57.329Z,211
2018-02-08T11:30:57.024Z,209
2018-02-08T11:31:56.903Z,207
2018-02-08T11:32:56.531Z,207
2018-02-08T11:33:57.439Z,209
2018-02-08T11:34:57.029Z,210
2018-02-08T11:35:57.167Z,208
2018-02-08T11:36:57.137Z,206
2018-02-08T11:37:57.055Z,202
2018-02-08T11:38:56.449Z,198
2018-02-08T11:39:57.113Z,195
2018-02-08T11:40:57.064Z,194
2018-02-08T11:41:56.966Z,191
2018-02-08T11:42:57.257Z,183
2018-02-08T11:43:57.424Z,180
2018-02-08T11:45:18.760Z,177
2018-02-08T11:46:20.208Z,185
2018-02-08T11:47:19.003Z,186
2018-02-08T11:48:40.693Z,185
2018-02-08T11:49:41.683Z,181
2018-02-08T11:50:42.368Z,185
2018-02-08T11:51:41.040Z,186
2018-02-08T11:52:42.052Z,187
2018-02-08T11:53:41.931Z,187
2018-02-08T11:54:42.144Z,188
2018-02-08T11:55:42.326Z,186
2018-02-08T11:56:41.712Z,189
2018-02-08T11:57:41.671Z,189
2018-02-08T11:58:43.649Z,190
2018-02-08T11:59:41.644Z,193
2018-02-08T12:00:41.325Z,189
2018-02-08T12:01:41.613Z,192
2018-02-08T12:02:41.236Z,192
2018-02-08T12:03:40.979Z,192
2018-02-08T12:04:41.908Z,190
2018-02-08T12:05:41.972Z,187
2018-02-08T12:06:41.950Z,189
2018-02-08T12:07:41.724Z,192
2018-02-08T12:08:41.655Z,192
2018-02-08T12:09:41.729Z,189
2018-02-08T12:10:41.826Z,192
2018-02-08T12:11:41.836Z,192
2018-02-08T12:12:41.320Z,190
2018-02-08T12:13:41.102Z,190
2018-02-08T12:14:41.787Z,193
2018-02-08T12:15:41.634Z,200
2018-02-08T12:16:41.570Z,202
2018-02-08T12:17:41.369Z,199
2018-02-08T12:18:41.043Z,197
2018-02-08T12:20:25.946Z,195
2018-02-08T12:21:25.215Z,191
2018-02-08T12:22:24.945Z,185
2018-02-08T12:23:25.974Z,180
2018-02-08T12:24:47.245Z,177
2018-02-08T12:25:47.156Z,173
2018-02-08T12:26:47.036Z,174
2018-02-08T12:27:47.012Z,171
2018-02-08T12:29:09.230Z,170
2018-02-08T12:30:08.909Z,171
2018-02-08T12:31:52.563Z,174
2018-02-08T12:32:52.482Z,178
2018-02-08T12:33:52.169Z,182
2018-02-08T12:34:52.111Z,183
2018-02-08T12:35:52.282Z,187
2018-02-08T12:36:52.525Z,192
2018-02-08T12:38:15.559Z,194
2018-02-08T12:39:37.886Z,190
2018-02-08T12:40:38.774Z,190
2018-02-08T12:41:38.558Z,186
2018-02-08T12:42:59.619Z,187
2018-02-08T12:44:00.587Z,178
2018-02-08T12:45:00.694Z,169
2018-02-08T12:46:00.814Z,170
2018-02-08T12:47:00.863Z,173
2018-02-08T12:48:00.846Z,168
2018-02-08T12:49:01.028Z,171
2018-02-08T12:50:24.939Z,173
2018-02-08T12:51:24.836Z,173
2018-02-08T12:52:25.080Z,172
2018-02-08T12:53:24.924Z,169
2018-02-08T12:54:24.775Z,165
2018-02-08T12:55:46.839Z,174
2018-02-08T12:56:46.216Z,183
2018-02-08T12:57:46.918Z,181
2018-02-08T12:58:45.775Z,169
2018-02-08T12:59:46.421Z,161
2018-02-08T13:00:46.948Z,152
2018-02-08T13:01:46.985Z,151
2018-02-08T13:02:46.217Z,160
2018-02-08T13:03:47.643Z,162
2018-02-08T13:04:47.264Z,162
2018-02-08T13:05:46.488Z,160
2018-02-08T13:06:45.835Z,178
2018-02-08T13:08:31.471Z,183
2018-02-08T13:09:32.360Z,184
2018-02-08T13:10:32.377Z,187
2018-02-08T13:11:53.722Z,195
2018-02-08T13:12:54.465Z,197
2018-02-08T13:13:54.494Z,206
2018-02-08T13:15:17.211Z,222
2018-02-08T13:16:17.032Z,224
2018-02-08T13:17:17.787Z,228
2018-02-08T13:18:17.332Z,222
2018-02-08T13:19:16.894Z,223
2018-02-08T13:20:16.533Z,222
2018-02-08T13:21:17.471Z,218
2018-02-08T13:22:17.251Z,210
2018-02-08T13:23:17.101Z,193
2018-02-08T13:24:16.899Z,193
2018-02-08T13:25:16.504Z,195
2018-02-08T13:26:17.266Z,199
2018-02-08T13:27:16.650Z,200
2018-02-08T13:28:17.163Z,197
2018-02-08T13:29:16.622Z,200
2018-02-08T13:30:17.201Z,200
2018-02-08T13:31:38.692Z,196
2018-02-08T13:32:38.180Z,196
2018-02-08T13:33:38.703Z,195
2018-02-08T13:34:39.195Z,201
2018-02-08T13:35:38.733Z,204
2018-02-08T13:36:38.323Z,210
2018-02-08T13:37:38.837Z,215
2018-02-08T13:38:39.361Z,220
2018-02-08T13:39:39.182Z,222
2018-02-08T13:40:39.010Z,221
2018-02-08T13:41:39.636Z,213
2018-02-08T13:42:38.705Z,206
2018-02-08T13:43:38.707Z,205
2018-02-08T13:44:39.566Z,199
2018-02-08T13:45:38.618Z,194
2018-02-08T13:46:38.255Z,194
2018-02-08T13:47:38.947Z,194
2018-02-08T13:48:56.168Z,195
2018-02-08T13:49:39.977Z,192
2018-02-08T13:50:38.766Z,192
2018-02-08T13:52:00.310Z,192
2018-02-08T13:53:02.027Z,187
2018-02-08T13:54:01.074Z,178
2018-02-08T13:55:00.674Z,176
2018-02-08T13:56:01.048Z,179
2018-02-08T13:57:01.040Z,174
2018-02-08T13:58:00.851Z,177
2018-02-08T13:59:00.419Z,182
2018-02-08T14:00:23.155Z,184
2018-02-08T14:01:23.360Z,186
2018-02-08T14:02:22.995Z,188
2018-02-08T14:03:23.199Z,191
2018-02-08T14:04:22.657Z,191
2018-02-08T14:05:22.745Z,188
2018-02-08T14:06:45.509Z,175
2018-02-08T14:07:45.668Z,168
2018-02-08T14:08:46.982Z,164
2018-02-08T14:09:46.235Z,159
2018-02-08T14:10:46.346Z,156
2018-02-08T14:12:07.678Z,156
2018-02-08T14:13:07.372Z,152
2018-02-08T14:14:07.646Z,147
2018-02-08T14:15:07.527Z,143
2018-02-08T14:16:07.293Z,139
2018-02-08T14:17:07.028Z,137
2018-02-08T14:18:07.848Z,133
2018-02-08T14:19:07.927Z,130
2018-02-08T14:20:08.551Z,131
2018-02-08T14:21:07.088Z,131
2018-02-08T14:22:06.977Z,129
2018-02-08T14:23:06.906Z,127
2018-02-08T14:24:07.499Z,124
2018-02-08T14:25:28.539Z,119
2018-02-08T14:26:29.668Z,115
2018-02-08T14:27:29.483Z,116
2018-02-08T14:28:29.440Z,115
2018-02-08T14:29:50.900Z,96
2018-02-08T14:31:35.474Z,67
2018-02-08T14:32:36.820Z,64
2018-02-08T14:33:35.827Z,63
2018-02-08T14:34:35.839Z,62
2018-02-08T14:36:43.235Z,61
2018-02-08T14:37:41.849Z,60
2018-02-08T14:38:41.551Z,60
2018-02-08T14:39:43.070Z,60
2018-02-08T14:40:42.111Z,59
2018-02-08T14:41:43.960Z,61
2018-02-08T14:42:42.955Z,60
2018-02-08T14:43:42.682Z,59
2018-02-08T14:45:03.373Z,56
2018-02-08T14:46:03.199Z,55
2018-02-08T14:47:03.536Z,54
2018-02-08T14:48:25.217Z,53
2018-02-08T14:49:25.171Z,52
2018-02-08T14:50:24.738Z,52
2018-02-08T14:51:25.461Z,51
2018-02-08T14:52:46.884Z,51
2018-02-08T14:53:47.905Z,50
2018-02-08T14:54:48.518Z,50
2018-02-08T14:55:47.619Z,49
2018-02-08T14:56:47.500Z,49
2018-02-08T14:57:47.360Z,49
2018-02-08T14:58:47.235Z,49
2018-02-08T14:59:46.689Z,49
2018-02-08T15:00:47.230Z,49
2018-02-08T15:01:47.183Z,49
2018-02-08T15:02:47.176Z,49
2018-02-08T15:04:08.543Z,48